createdAt,value
2018-03-24T00:00:59.111Z,16.57
2018-03-24T00:03:27.996Z,17.17
2018-03-24T00:05:56.887Z,17.90
2018-03-24T00:08:25.740Z,17.23
2018-03-24T00:10:54.823Z,21.40
2018-03-24T00:13:23.718Z,17.87
2018-03-24T00:15:52.566Z,18.30
2018-03-24T00:18:21.429Z,17.20
2018-03-24T00:20:50.932Z,17.57
2018-03-24T00:23:19.793Z,20.80
2018-03-24T00:25:48.643Z,17.80
2018-03-24T00:28:17.554Z,18.00
2018-03-24T00:30:46.409Z,15.83
2018-03-24T00:33:15.258Z,15.97
2018-03-24T00:35:44.154Z,15.13
2018-03-24T00:38:13.943Z,16.33
2018-03-24T00:40:42.841Z,21.97
2018-03-24T00:43:11.744Z,18.03
2018-03-24T00:45:40.604Z,17.73
2018-03-24T00:48:09.471Z,16.17
2018-03-24T00:50:38.361Z,13.97
2018-03-24T00:53:07.408Z,14.47
2018-03-24T00:55:36.312Z,16.97
2018-03-24T00:58:05.170Z,15.50
2018-03-24T01:00:34.028Z,18.10
2018-03-24T01:03:02.944Z,15.07
2018-03-24T01:05:31.800Z,15.27
2018-03-24T01:08:00.647Z,17.67
2018-03-24T01:10:29.539Z,17.13
2018-03-24T01:12:58.655Z,15.30
2018-03-24T01:15:27.658Z,15.37
2018-03-24T01:17:57.591Z,19.20
2018-03-24T01:20:26.450Z,18.60
2018-03-24T01:22:55.318Z,18.10
2018-03-24T01:25:24.214Z,20.30
2018-03-24T01:27:53.105Z,14.60
2018-03-24T01:30:21.957Z,14.83
2018-03-24T01:32:51.033Z,16.50
2018-03-24T01:35:19.986Z,13.67
2018-03-24T01:37:48.830Z,14.73
2018-03-24T01:40:17.700Z,15.47
2018-03-24T01:42:46.546Z,14.87
2018-03-24T01:45:15.398Z,16.93
2018-03-24T01:47:44.654Z,15.17
2018-03-24T01:50:13.527Z,15.50
2018-03-24T01:52:42.448Z,14.27
2018-03-24T01:55:12.174Z,16.67
2018-03-24T01:57:41.150Z,15.27
2018-03-24T02:00:09.995Z,16.17
2018-03-24T02:02:38.878Z,13.87
2018-03-24T02:05:07.721Z,14.80
2018-03-24T02:07:36.967Z,16.67
2018-03-24T02:10:05.949Z,18.20
2018-03-24T02:12:37.914Z,17.60
2018-03-24T02:15:07.395Z,16.10
2018-03-24T02:17:36.247Z,16.40
2018-03-24T02:20:05.098Z,17.77
2018-03-24T02:22:34.002Z,16.63
2018-03-24T02:25:09.530Z,17.73
2018-03-24T02:27:39.031Z,18.57
2018-03-24T02:30:07.882Z,22.57
2018-03-24T02:32:36.751Z,19.33
2018-03-24T02:35:05.667Z,18.77
2018-03-24T02:37:34.525Z,22.27
2018-03-24T02:40:03.385Z,21.10
2018-03-24T02:42:32.274Z,19.40
2018-03-24T02:45:01.135Z,21.37
2018-03-24T02:47:29.993Z,22.13
2018-03-24T02:49:58.893Z,21.60
2018-03-24T02:52:27.750Z,24.03
2018-03-24T02:54:56.618Z,21.83
2018-03-24T02:57:25.518Z,22.13
2018-03-24T02:59:54.409Z,26.23
2018-03-24T03:02:23.267Z,23.73
2018-03-24T03:04:53.006Z,25.67
2018-03-24T03:07:21.866Z,25.90
2018-03-24T03:09:50.718Z,27.73
2018-03-24T03:12:19.803Z,28.07
2018-03-24T03:14:48.660Z,27.70
2018-03-24T03:17:17.954Z,27.90
2018-03-24T03:19:46.843Z,31.10
2018-03-24T03:22:15.728Z,29.57
2018-03-24T03:24:45.257Z,31.00
2018-03-24T03:27:15.400Z,31.07
2018-03-24T03:29:44.295Z,34.07
2018-03-24T03:32:18.087Z,28.07
2018-03-24T03:34:47.172Z,30.37
2018-03-24T03:37:16.026Z,29.73
2018-03-24T03:39:44.888Z,31.40
2018-03-24T03:42:13.787Z,30.60
2018-03-24T03:44:42.632Z,31.23
2018-03-24T03:47:11.726Z,30.07
2018-03-24T03:49:40.591Z,32.43
2018-03-24T03:52:09.450Z,34.67
2018-03-24T03:54:38.607Z,32.87
2018-03-24T03:57:07.522Z,34.00
2018-03-24T03:59:38.242Z,33.53
2018-03-24T04:02:07.157Z,34.90
2018-03-24T04:04:36.014Z,36.10
2018-03-24T04:07:04.867Z,33.27
2018-03-24T04:09:33.770Z,34.13
2018-03-24T04:12:02.640Z,38.03
2018-03-24T04:14:31.497Z,36.83
2018-03-24T04:17:01.287Z,34.97
2018-03-24T04:19:30.396Z,39.07
2018-03-24T04:21:59.255Z,41.40
2018-03-24T04:24:28.135Z,34.87
2018-03-24T04:26:56.994Z,36.23
2018-03-24T04:29:26.167Z,34.43
2018-03-24T04:31:55.019Z,38.77
2018-03-24T04:34:23.902Z,38.47
2018-03-24T04:36:52.795Z,38.70
2018-03-24T04:39:21.706Z,40.23
2018-03-24T04:41:50.610Z,39.80
2018-03-24T04:44:19.470Z,36.90
2018-03-24T04:46:48.363Z,37.30
2018-03-24T04:49:17.590Z,37.67
2018-03-24T04:51:46.458Z,41.97
2018-03-24T04:54:15.350Z,39.10
2018-03-24T04:56:44.228Z,47.40
2018-03-24T04:59:13.075Z,45.93
2018-03-24T05:01:42.015Z,50.37
2018-03-24T05:04:10.879Z,36.53
2018-03-24T05:06:39.891Z,37.97
2018-03-24T05:09:08.798Z,42.43
2018-03-24T05:11:37.672Z,43.93
2018-03-24T05:14:06.487Z,42.10
2018-03-24T05:16:38.571Z,45.67
2018-03-24T05:19:07.440Z,41.27
2018-03-24T05:21:36.303Z,41.97
2018-03-24T05:24:05.210Z,38.07
2018-03-24T05:26:34.077Z,36.07
2018-03-24T05:29:02.937Z,43.43
2018-03-24T05:31:31.846Z,37.50
2018-03-24T05:34:00.691Z,44.70
2018-03-24T05:36:29.670Z,40.17
2018-03-24T05:38:59.228Z,37.43
2018-03-24T05:41:28.043Z,42.23
2018-03-24T05:43:56.901Z,36.10
2018-03-24T05:46:25.795Z,35.63
2018-03-24T05:48:54.660Z,33.77
2018-03-24T05:51:23.522Z,36.80
2018-03-24T05:53:52.431Z,38.17
2018-03-24T05:56:21.308Z,37.43
2018-03-24T05:58:50.205Z,46.43
2018-03-24T06:01:19.074Z,48.70
2018-03-24T06:03:47.939Z,42.77
2018-03-24T06:06:16.828Z,38.07
2018-03-24T06:08:45.687Z,35.50
2018-03-24T06:11:14.886Z,36.87
2018-03-24T06:13:43.755Z,36.23
2018-03-24T06:16:12.623Z,35.63
2018-03-24T06:18:43.195Z,43.63
2018-03-24T06:21:12.054Z,38.73
2018-03-24T06:23:40.979Z,34.67
2018-03-24T06:26:10.304Z,34.47
2018-03-24T06:28:39.146Z,31.47
2018-03-24T06:31:10.196Z,37.77
2018-03-24T06:33:39.049Z,32.43
2018-03-24T06:36:11.093Z,34.43
2018-03-24T06:38:40.171Z,34.13
2018-03-24T06:41:09.181Z,35.03
2018-03-24T06:43:38.035Z,39.00
2018-03-24T06:46:06.958Z,34.93
2018-03-24T06:48:35.899Z,31.73
2018-03-24T06:51:04.803Z,37.17
2018-03-24T06:53:33.741Z,30.23
2018-03-24T06:56:02.592Z,33.93
2018-03-24T06:58:34.793Z,31.53
2018-03-24T07:01:03.660Z,35.63
2018-03-24T07:03:32.550Z,29.30
2018-03-24T07:06:01.506Z,28.60
2018-03-24T07:08:30.381Z,34.43
2018-03-24T07:10:59.508Z,30.47
2018-03-24T07:13:28.562Z,30.70
2018-03-24T07:15:57.597Z,31.30
2018-03-24T07:18:26.946Z,28.50
2018-03-24T07:20:55.891Z,37.83
2018-03-24T07:23:24.743Z,37.27
2018-03-24T07:25:53.649Z,29.57
2018-03-24T07:28:22.500Z,36.37
2018-03-24T07:30:51.359Z,33.10
2018-03-24T07:33:21.298Z,30.93
2018-03-24T07:35:50.278Z,30.83
2018-03-24T07:38:19.138Z,35.07
2018-03-24T07:40:48.879Z,30.20
2018-03-24T07:43:17.729Z,36.67
2018-03-24T07:45:46.643Z,32.37
2018-03-24T07:48:15.498Z,33.73
2018-03-24T07:50:44.423Z,32.07
2018-03-24T07:53:13.333Z,30.93
2018-03-24T07:55:42.242Z,31.20
2018-03-24T07:58:11.362Z,33.07
2018-03-24T08:00:40.206Z,30.70
2018-03-24T08:03:09.065Z,31.77
2018-03-24T08:05:38.228Z,32.47
2018-03-24T08:08:07.195Z,32.67
2018-03-24T08:10:36.126Z,35.20
2018-03-24T08:13:05.048Z,33.07
2018-03-24T08:15:33.911Z,32.10
2018-03-24T08:18:02.781Z,33.70
2018-03-24T08:20:32.493Z,32.60
2018-03-24T08:23:01.356Z,32.30
2018-03-24T08:25:30.215Z,32.63
2018-03-24T08:27:59.898Z,32.80
2018-03-24T08:30:28.784Z,32.00
2018-03-24T08:32:57.676Z,32.17
2018-03-24T08:35:26.671Z,32.23
2018-03-24T08:37:55.857Z,30.50
2018-03-24T08:40:24.712Z,31.03
2018-03-24T08:42:53.559Z,31.27
2018-03-24T08:45:23.245Z,30.10
2018-03-24T08:47:52.109Z,32.07
2018-03-24T08:50:20.975Z,30.70
2018-03-24T08:52:49.888Z,30.60
2018-03-24T08:55:18.872Z,29.67
2018-03-24T08:57:49.566Z,29.43
2018-03-24T09:00:18.657Z,27.57
2018-03-24T09:02:47.579Z,26.93
2018-03-24T09:05:16.472Z,28.00
2018-03-24T09:07:45.327Z,26.23
2018-03-24T09:10:14.178Z,25.03
2018-03-24T09:12:43.262Z,27.27
2018-03-24T09:15:12.131Z,25.03
2018-03-24T09:17:41.007Z,24.83
2018-03-24T09:20:10.392Z,23.37
2018-03-24T09:22:39.299Z,23.37
2018-03-24T09:25:08.167Z,21.80
2018-03-24T09:27:37.046Z,20.47
2018-03-24T09:30:05.978Z,20.60
2018-03-24T09:32:34.842Z,20.27
2018-03-24T09:35:03.811Z,19.03
2018-03-24T09:37:33.518Z,17.13
2018-03-24T09:40:02.375Z,15.90
2018-03-24T09:42:31.339Z,16.07
2018-03-24T09:45:00.222Z,15.70
2018-03-24T09:47:29.109Z,15.03
2018-03-24T09:49:57.988Z,15.33
2018-03-24T09:52:26.857Z,15.30
2018-03-24T09:54:55.719Z,15.07
2018-03-24T09:57:26.104Z,13.73
2018-03-24T09:59:54.943Z,13.80
2018-03-24T10:02:23.855Z,13.57
2018-03-24T10:04:53.200Z,13.67
2018-03-24T10:07:22.067Z,12.87
2018-03-24T10:09:50.942Z,13.90
2018-03-24T10:12:19.844Z,12.30
2018-03-24T10:14:48.712Z,12.60
2018-03-24T10:17:18.283Z,11.67
2018-03-24T10:19:47.177Z,11.47
2018-03-24T10:22:35.075Z,12.23
2018-03-24T10:25:03.963Z,11.40
2018-03-24T10:27:32.891Z,10.87
2018-03-24T10:30:01.783Z,12.47
2018-03-24T10:32:34.492Z,11.43
2018-03-24T10:35:09.275Z,11.23
2018-03-24T10:37:43.950Z,11.60
2018-03-24T10:40:13.014Z,10.80
2018-03-24T10:42:42.678Z,9.10
2018-03-24T10:45:11.535Z,9.60
2018-03-24T10:47:40.406Z,8.80
2018-03-24T10:50:09.255Z,9.17
2018-03-24T10:52:38.230Z,9.27
2018-03-24T10:55:07.086Z,8.63
2018-03-24T10:57:37.393Z,7.33
2018-03-24T11:00:06.274Z,7.20
2018-03-24T11:02:35.142Z,8.20
2018-03-24T11:05:04.261Z,7.53
2018-03-24T11:07:33.137Z,7.63
2018-03-24T11:10:02.089Z,8.13
2018-03-24T11:12:31.135Z,7.13
2018-03-24T11:15:00.029Z,8.10
2018-03-24T11:17:28.836Z,7.80
2018-03-24T11:19:57.899Z,8.07
2018-03-24T11:22:27.554Z,8.10
2018-03-24T11:24:56.672Z,8.70
2018-03-24T11:27:25.532Z,8.80
2018-03-24T11:29:54.384Z,10.30
2018-03-24T11:32:23.379Z,9.33
2018-03-24T11:34:52.236Z,8.80
2018-03-24T11:37:21.164Z,8.47
2018-03-24T11:39:50.146Z,8.27
2018-03-24T11:42:19.362Z,9.13
2018-03-24T11:44:48.591Z,10.10
2018-03-24T11:47:17.424Z,10.63
2018-03-24T11:49:46.321Z,8.80
2018-03-24T11:52:15.167Z,8.30
2018-03-24T11:54:44.030Z,10.03
2018-03-24T11:57:12.934Z,10.90
2018-03-24T11:59:41.777Z,11.27
2018-03-24T12:02:10.644Z,10.23
2018-03-24T12:04:39.565Z,10.43
2018-03-24T12:07:08.411Z,9.53
2018-03-24T12:09:37.438Z,11.30
2018-03-24T12:12:07.400Z,11.63
2018-03-24T12:14:37.139Z,11.02
2018-03-24T12:17:06.068Z,11.40
2018-03-24T12:19:34.926Z,11.70
2018-03-24T12:22:04.055Z,10.95
2018-03-24T12:24:33.593Z,10.40
2018-03-24T12:27:02.505Z,10.30
2018-03-24T12:29:32.596Z,9.95
2018-03-24T12:32:01.475Z,10.23
2018-03-24T12:34:30.323Z,10.65
2018-03-24T12:36:59.470Z,11.60
2018-03-24T12:42:03.753Z,9.77
2018-03-24T12:44:32.620Z,9.98
2018-03-24T12:47:01.499Z,10.90
2018-03-24T12:49:31.465Z,11.00
2018-03-24T12:52:00.314Z,11.65
2018-03-24T12:54:29.171Z,10.90
2018-03-24T12:56:58.135Z,11.05
2018-03-24T12:59:26.979Z,11.27
2018-03-24T13:01:55.853Z,10.07
2018-03-24T13:04:24.746Z,10.50
2018-03-24T13:06:53.614Z,11.63
2018-03-24T13:09:22.480Z,11.60
2018-03-24T13:11:52.747Z,10.43
2018-03-24T13:14:21.643Z,12.20
2018-03-24T13:16:50.498Z,11.70
2018-03-24T13:19:19.411Z,12.43
2018-03-24T13:21:48.299Z,11.63
2018-03-24T13:24:17.164Z,12.57
2018-03-24T13:26:47.272Z,11.88
2018-03-24T13:29:16.140Z,13.95
2018-03-24T13:31:45.017Z,15.07
2018-03-24T13:34:14.076Z,14.30
2018-03-24T13:36:42.935Z,14.27
2018-03-24T13:39:11.970Z,14.32
2018-03-24T13:41:40.975Z,12.90
2018-03-24T13:44:09.835Z,12.75
2018-03-24T13:46:38.707Z,13.18
2018-03-24T13:49:08.392Z,13.48
2018-03-24T13:51:37.247Z,14.23
2018-03-24T13:54:06.080Z,13.30
2018-03-24T13:56:35.123Z,13.32
2018-03-24T13:59:06.067Z,14.82
2018-03-24T14:01:34.942Z,14.23
2018-03-24T14:04:06.547Z,13.05
2018-03-24T14:06:35.407Z,12.82
2018-03-24T14:09:04.292Z,12.77
2018-03-24T14:11:33.419Z,13.85
2018-03-24T14:14:02.280Z,11.90
2018-03-24T14:16:31.142Z,12.90
2018-03-24T14:19:00.029Z,11.65
2018-03-24T14:21:29.015Z,12.35
2018-03-24T14:23:58.082Z,11.77
2018-03-24T14:26:26.941Z,11.75
2018-03-24T14:28:56.360Z,12.15
2018-03-24T14:31:25.329Z,11.68
2018-03-24T14:33:54.198Z,12.18
2018-03-24T14:36:23.226Z,11.68
2018-03-24T14:38:52.348Z,10.95
2018-03-24T14:41:21.196Z,10.90
2018-03-24T14:43:50.082Z,10.30
2018-03-24T14:46:18.951Z,10.88
2018-03-24T14:48:47.849Z,10.20
2018-03-24T14:51:16.916Z,10.40
2018-03-24T14:53:45.863Z,10.32
2018-03-24T14:56:14.717Z,9.65
2018-03-24T14:58:43.779Z,10.48
2018-03-24T15:01:12.632Z,10.15
2018-03-24T15:03:41.488Z,10.05
2018-03-24T15:06:10.393Z,10.05
2018-03-24T15:08:39.307Z,13.05
2018-03-24T15:11:08.461Z,10.98
2018-03-24T15:13:37.278Z,12.15
2018-03-24T15:16:06.163Z,10.65
2018-03-24T15:18:35.090Z,10.30
2018-03-24T15:21:03.959Z,10.40
2018-03-24T15:23:32.812Z,10.32
2018-03-24T15:26:01.904Z,11.90
2018-03-24T15:28:30.754Z,9.67
2018-03-24T15:31:06.510Z,10.00
2018-03-24T15:33:41.212Z,9.47
2018-03-24T15:36:16.871Z,10.40
2018-03-24T15:38:45.744Z,15.87
2018-03-24T15:41:14.606Z,9.50
2018-03-24T15:43:43.482Z,9.27
2018-03-24T15:46:12.348Z,10.17
2018-03-24T15:48:41.534Z,9.37
2018-03-24T15:51:10.400Z,9.67
2018-03-24T15:53:39.257Z,9.23
2018-03-24T15:56:08.271Z,8.70
2018-03-24T15:58:38.764Z,8.63
2018-03-24T16:01:07.892Z,9.27
2018-03-24T16:03:36.795Z,13.00
2018-03-24T16:06:05.649Z,9.43
2018-03-24T16:08:34.495Z,8.97
2018-03-24T16:11:03.414Z,8.67
2018-03-24T16:13:32.286Z,9.67
2018-03-24T16:16:01.154Z,8.30
2018-03-24T16:18:30.024Z,9.17
2018-03-24T16:20:58.882Z,8.57
2018-03-24T16:23:27.805Z,8.90
2018-03-24T16:25:56.706Z,8.70
2018-03-24T16:28:25.565Z,9.13
2018-03-24T16:30:55.081Z,8.20
2018-03-24T16:33:23.927Z,9.30
2018-03-24T16:35:52.783Z,8.43
2018-03-24T16:38:21.872Z,8.50
2018-03-24T16:40:50.796Z,8.50
2018-03-24T16:43:19.626Z,8.53
2018-03-24T16:45:48.546Z,8.03
2018-03-24T16:48:17.396Z,8.37
2018-03-24T16:50:46.239Z,8.80
2018-03-24T16:53:16.032Z,8.50
2018-03-24T16:55:44.896Z,9.13
2018-03-24T16:58:13.820Z,8.50
2018-03-24T17:00:42.698Z,8.80
2018-03-24T17:03:11.559Z,8.30
2018-03-24T17:05:40.595Z,8.33
2018-03-24T17:08:09.499Z,8.40
2018-03-24T17:10:38.309Z,8.63
2018-03-24T17:13:07.190Z,8.00
2018-03-24T17:15:36.059Z,8.20
2018-03-24T17:18:05.139Z,7.60
2018-03-24T17:20:33.991Z,7.93
2018-03-24T17:23:02.940Z,7.00
2018-03-24T17:25:32.094Z,7.73
2018-03-24T17:28:00.945Z,7.23
2018-03-24T17:30:30.162Z,7.50
2018-03-24T17:32:59.427Z,7.00
2018-03-24T17:35:28.279Z,6.40
2018-03-24T17:37:57.176Z,7.13
2018-03-24T17:40:26.043Z,7.00
2018-03-24T17:42:54.955Z,6.93
2018-03-24T17:45:24.075Z,6.67
2018-03-24T17:47:52.936Z,6.57
2018-03-24T17:50:21.866Z,6.70
2018-03-24T17:52:50.778Z,6.77
2018-03-24T17:55:19.644Z,6.60
2018-03-24T17:57:48.509Z,6.83
2018-03-24T18:00:17.428Z,6.83
2018-03-24T18:02:46.280Z,7.20
2018-03-24T18:05:15.139Z,6.70
2018-03-24T18:07:44.030Z,6.80
2018-03-24T18:10:12.836Z,6.80
2018-03-24T18:12:43.602Z,6.47
2018-03-24T18:15:12.451Z,6.40
2018-03-24T18:17:41.326Z,6.43
2018-03-24T18:20:10.206Z,6.17
2018-03-24T18:22:39.057Z,5.53
2018-03-24T18:25:07.917Z,6.60
2018-03-24T18:27:36.825Z,7.97
2018-03-24T18:30:05.667Z,7.97
2018-03-24T18:32:34.548Z,7.17
2018-03-24T18:35:04.777Z,6.97
2018-03-24T18:37:33.610Z,6.53
2018-03-24T18:40:02.483Z,6.23
2018-03-24T18:42:31.780Z,6.77
2018-03-24T18:45:00.634Z,6.50
2018-03-24T18:47:29.678Z,5.77
2018-03-24T18:49:58.550Z,5.87
2018-03-24T18:52:27.422Z,5.63
2018-03-24T18:54:57.325Z,6.10
2018-03-24T18:57:26.171Z,6.03
2018-03-24T18:59:55.019Z,6.30
2018-03-24T19:02:23.911Z,5.60
2018-03-24T19:04:52.764Z,5.90
2018-03-24T19:07:21.951Z,5.33
2018-03-24T19:09:50.795Z,5.43
2018-03-24T19:12:19.640Z,5.17
2018-03-24T19:14:50.618Z,5.73
2018-03-24T19:17:19.467Z,6.57
2018-03-24T19:19:48.331Z,8.60
2018-03-24T19:22:17.384Z,9.17
2018-03-24T19:24:46.238Z,7.07
2018-03-24T19:27:15.075Z,8.53
2018-03-24T19:29:45.282Z,7.57
2018-03-24T19:32:14.128Z,6.93
2018-03-24T19:34:43.049Z,7.70
2018-03-24T19:37:11.967Z,13.10
2018-03-24T19:39:40.818Z,12.73
2018-03-24T19:42:09.728Z,10.63
2018-03-24T19:44:38.727Z,7.97
2018-03-24T19:47:07.591Z,7.97
2018-03-24T19:49:36.444Z,9.53
2018-03-24T19:52:05.406Z,8.17
2018-03-24T19:54:34.259Z,10.30
2018-03-24T19:57:03.126Z,9.17
2018-03-24T19:59:33.408Z,7.10
2018-03-24T20:02:02.278Z,7.30
2018-03-24T20:04:31.126Z,7.80
2018-03-24T20:07:00.038Z,8.17
2018-03-24T20:09:28.915Z,11.23
2018-03-24T20:11:57.774Z,10.83
2018-03-24T20:14:26.708Z,10.13
2018-03-24T20:16:56.659Z,8.80
2018-03-24T20:19:25.519Z,8.60
2018-03-24T20:21:54.406Z,8.00
2018-03-24T20:24:23.274Z,8.63
2018-03-24T20:26:52.140Z,8.20
2018-03-24T20:29:21.003Z,8.73
2018-03-24T20:31:49.981Z,9.77
2018-03-24T20:34:18.889Z,8.67
2018-03-24T20:36:47.733Z,8.37
2018-03-24T20:39:16.616Z,8.60
2018-03-24T20:41:45.832Z,8.63
2018-03-24T20:44:14.781Z,7.87
2018-03-24T20:46:43.712Z,9.53
2018-03-24T20:49:13.144Z,7.57
2018-03-24T20:51:41.996Z,9.60
2018-03-24T20:54:10.855Z,10.03
2018-03-24T20:56:39.758Z,8.53
2018-03-24T20:59:08.607Z,9.20
2018-03-24T21:01:38.163Z,8.77
2018-03-24T21:04:07.019Z,9.47
2018-03-24T21:06:35.884Z,8.80
2018-03-24T21:09:04.980Z,9.33
2018-03-24T21:11:33.824Z,9.50
2018-03-24T21:14:02.667Z,8.87
2018-03-24T21:16:31.786Z,9.93
2018-03-24T21:19:01.694Z,9.57
2018-03-24T21:21:30.574Z,8.90
2018-03-24T21:23:59.466Z,8.43
2018-03-24T21:26:28.322Z,8.20
2018-03-24T21:28:57.187Z,8.00
2018-03-24T21:31:26.154Z,7.20
2018-03-24T21:33:55.003Z,6.80
2018-03-24T21:36:23.878Z,5.23
2018-03-24T21:38:53.563Z,5.37
2018-03-24T21:41:22.616Z,4.93
2018-03-24T21:43:51.568Z,5.10
2018-03-24T21:46:20.473Z,10.50
2018-03-24T21:48:49.327Z,11.27
2018-03-24T21:51:18.178Z,12.60
2018-03-24T21:53:47.100Z,12.47
2018-03-24T21:56:15.973Z,14.97
2018-03-24T21:58:46.430Z,14.67
2018-03-24T22:01:15.278Z,9.10
2018-03-24T22:03:44.139Z,10.57
2018-03-24T22:06:13.394Z,8.73
2018-03-24T22:08:42.264Z,7.63
2018-03-24T22:11:11.120Z,7.40
2018-03-24T22:13:40.012Z,7.47
2018-03-24T22:16:08.844Z,6.60
2018-03-24T22:18:37.758Z,7.20
2018-03-24T22:21:07.360Z,6.57
2018-03-24T22:23:36.227Z,5.47
2018-03-24T22:26:05.115Z,6.10
2018-03-24T22:28:33.968Z,6.43
2018-03-24T22:33:38.194Z,6.73
2018-03-24T22:36:07.992Z,5.63
2018-03-24T22:38:36.852Z,6.97
2018-03-24T22:41:05.852Z,5.80
2018-03-24T22:43:34.947Z,5.60
2018-03-24T22:46:03.841Z,6.47
2018-03-24T22:48:32.706Z,6.30
2018-03-24T22:51:01.842Z,5.50
2018-03-24T22:53:30.694Z,6.13
2018-03-24T22:55:59.558Z,5.70
2018-03-24T22:58:29.130Z,5.53
2018-03-24T23:00:57.984Z,6.43
2018-03-24T23:03:26.848Z,6.60
2018-03-24T23:05:56.123Z,5.83
2018-03-24T23:08:24.978Z,6.47
2018-03-24T23:10:53.830Z,6.77
2018-03-24T23:13:22.713Z,7.30
2018-03-24T23:15:51.564Z,6.80
2018-03-24T23:18:20.822Z,7.00
2018-03-24T23:20:49.675Z,6.60
2018-03-24T23:23:19.360Z,7.40
2018-03-24T23:25:48.477Z,6.50
2018-03-24T23:28:17.319Z,7.50
2018-03-24T23:30:46.187Z,7.97
2018-03-24T23:33:15.070Z,7.40
2018-03-24T23:35:44.023Z,7.30
2018-03-24T23:38:13.086Z,8.00
2018-03-24T23:40:41.944Z,8.27
2018-03-24T23:43:10.792Z,8.73
2018-03-24T23:45:39.748Z,8.30
2018-03-24T23:48:08.587Z,6.73
2018-03-24T23:50:37.693Z,8.27
2018-03-24T23:53:06.551Z,9.27
2018-03-24T23:55:35.408Z,8.53
2018-03-24T23:58:04.300Z,7.17
